Newport, Mississippi
Current Conditions -  °F | °C
As of 9:54 PM on Saturday 24 Jan 2015 (Local Time) from KMEM Reporting Station
Clear Clear  
Wind Chill: 38°   Ceiling: Unl
Heat Index: 42°   Visibility: 10mi
Dew Point: 34°   Wind: 6mph
Humidity: 73%   Direction: 210°SSW
Pressure: 29.91"   Gusts: NA
Location:  34.9155°N, 90.1878°W
Report Text: KMEM 250354Z 21005KT 10SM CLR 06/01 A2991 RMK AO2 SLP130 T00560011 $
Loading
Personal Weather Stations






























Interactive Weather Map New forecast layout! Learn more

10-Day Weather Forecast

Advertisements
Track Severe Weather on mobile